Latest Weather Observations for Curtin

IDW60801

Issued at 7:03 pm WST Monday 2 March 2015 (issued every 30 minutes, with the page automatically refreshed every 10 minutes)

About weather observations | Map of weather stations | Latest weather observations for WA | Other Formats
Station Details ID: 003080 Name: CURTIN AERO Lat: -17.58 Lon: 123.83 Height: 77.5 m
Data from the previous 72 hours. | See also: Recent months at Curtin
Date/Time
WST
Temp
°C
App
Temp
°C
Dew
Point
Rel
Hum
%
Delta-T
°C
Wind Press
QNH
hPa
Press
MSL
hPa
Rain
since 9 am
mm
Dir
 
Spd
km/h
Gust
km/h
Spd
kts
Gust
kts
02/07:00pm 30.0 34.0 25.1 75 3.5 NW 13 17 7 9 1004.5 1003.9 0.0
02/06:30pm 30.1 35.1 24.5 72 3.9 NNW 6 7 3 4 1004.2 1003.6 0.0
02/06:00pm 31.6 36.0 23.4 61 5.7 NW 6 7 3 4 1003.6 1003.0 0.0
02/05:30pm 32.8 37.0 23.4 57 6.5 WNW 7 11 4 6 1003.5 1002.9 0.0
02/05:00pm 33.6 37.3 23.3 55 7.2 WNW 9 13 5 7 1003.3 1002.7 0.0
02/04:30pm 33.8 37.7 22.9 53 7.5 W 7 13 4 7 1003.2 1002.6 0.0
02/04:00pm 33.2 36.2 22.6 53 7.3 W 11 15 6 8 1003.1 1002.5 0.0
02/03:30pm 33.6 37.2 22.4 52 7.7 SSW 7 13 4 7 1002.8 1002.2 0.0
02/03:00pm 33.3 37.2 23.0 54 7.1 SSW 7 13 4 7 1003.1 1002.5 0.0
02/02:30pm 33.1 37.3 23.1 55 6.9 NNW 6 15 3 8 1003.2 1002.6 0.0
02/02:00pm 33.5 37.2 23.2 54 7.2 S 9 15 5 8 1003.6 1003.0 0.0
02/01:30pm 32.6 36.1 23.5 58 6.3 SE 11 20 6 11 1004.1 1003.5 0.0
02/01:00pm 32.3 35.2 23.8 61 5.9 SSE 15 20 8 11 1004.9 1004.3 0.0
02/12:30pm 31.5 34.1 23.3 61 5.7 SE 15 20 8 11 1005.7 1005.1 0.0
02/12:00pm 30.7 32.8 24.1 68 4.6 SE 20 26 11 14 1006.2 1005.6 0.0
02/11:30am 31.8 35.4 24.4 65 5.2 SE 13 20 7 11 1006.7 1006.1 0.0
02/11:00am 31.1 34.6 24.2 66 4.8 SSE 13 20 7 11 1007.3 1006.7 0.0
02/10:30am 31.2 34.4 24.3 66 4.8 SSE 15 24 8 13 1007.9 1007.3 0.0
02/10:00am 31.2 34.7 24.8 69 4.5 SSE 15 22 8 12 1008.2 1007.6 0.0
02/09:30am 30.1 33.9 24.7 73 3.8 SW 13 19 7 10 1007.9 1007.3 0.0
02/09:00am 29.2 34.3 25.6 81 2.6 SW 9 13 5 7 1008.0 1007.4 3.2
02/08:30am 28.1 32.9 25.7 87 1.7 SSW 11 13 6 7 1007.6 1007.0 3.2
02/08:00am 27.2 32.6 25.4 90 1.3 SSW 7 9 4 5 1007.3 1006.7 3.2
02/07:30am 26.5 32.4 26.2 98 0.2 S 7 9 4 5 1007.3 1006.7 3.2
02/07:00am 25.9 31.2 25.9 100 0.0 SSW 9 9 5 5 1007.2 1006.6 3.2
02/06:30am 25.4 31.0 25.4 100 0.0 SE 6 7 3 4 1007.4 1006.8 3.2
02/06:00am 25.3 30.6 25.3 100 0.0 S 7 11 4 6 1007.2 1006.6 3.2
02/05:30am 25.1 31.2 25.1 100 0.0 ENE 2 6 1 3 1006.8 1006.2 3.0
02/05:00am 25.0 31.5 25.0 100 0.0 CALM 0 6 0 3 1006.8 1006.2 3.0
02/04:30am 25.2 31.8 25.2 100 0.0 CALM 0 0 0 0 1006.0 1005.4 3.0
02/04:00am 25.6 31.7 25.6 100 0.0 SSW 4 9 2 5 1005.2 1004.6 3.0
02/03:30am 25.5 30.9 25.5 100 0.0 SE 7 11 4 6 1005.4 1004.8 3.0
02/03:11am 25.6 31.1 25.6 100 0.0 ESE 7 9 4 5 1005.6 1005.0 3.0
02/03:00am 25.6 31.1 25.6 100 0.0 ESE 7 9 4 5 1005.7 1005.1 3.0
02/02:30am 25.7 31.3 25.7 100 0.0 ENE 7 11 4 6 1005.7 1005.1 3.0
02/02:00am 25.6 31.1 25.6 100 0.0 N 7 9 4 5 1005.6 1005.0 3.0
02/01:59am 25.7 31.3 25.7 100 0.0 N 7 9 4 5 1005.6 1005.0 3.0
02/01:30am 25.7 31.3 25.7 100 0.0 NNW 7 11 4 6 1005.7 1005.1 3.0
02/01:00am 25.9 31.2 25.9 100 0.0 NW 9 11 5 6 1006.2 1005.6 3.0
02/12:30am 26.2 32.1 26.2 100 0.0 SSW 7 13 4 7 1006.0 1005.4 3.0
02/12:00am 26.0 31.4 26.0 100 0.0 SE 9 9 5 5 1007.0 1006.4 3.0
 
Date/Time
WST
Temp
°C
App
Temp
°C
Dew
Point
Rel
Hum
%
Delta-T
°C
Wind Press
QNH
hPa
Press
MSL
hPa
Rain
since 9 am
mm
Dir
 
Spd
km/h
Gust
km/h
Spd
kts
Gust
kts
01/11:30pm 26.0 31.8 26.0 100 0.0 E 7 9 4 5 1007.3 1006.7 3.0
01/11:00pm 26.1 30.4 26.1 100 0.0 SSE 15 17 8 9 1006.5 1005.9 2.8
01/10:30pm 25.8 31.3 25.6 99 0.1 NE 7 11 4 6 1007.5 1006.9 2.4
01/10:00pm 25.8 31.3 25.6 99 0.1 NE 7 11 4 6 1008.1 1007.5 1.8
01/09:30pm 26.0 30.0 25.1 95 0.6 ENE 13 17 7 9 1008.5 1007.9 1.2
01/09:00pm 27.3 31.9 25.9 92 1.0 ENE 13 20 7 11 1008.3 1007.7 0.0
01/08:30pm 28.1 34.0 26.7 92 1.0 ENE 9 13 5 7 1007.8 1007.2 0.0
01/08:00pm 28.0 34.0 26.4 91 1.1 E 7 9 4 5 1007.1 1006.5 0.0
01/07:30pm 28.1 35.5 26.5 91 1.1 CALM 0 0 0 0 1006.2 1005.6 0.0
01/07:00pm 28.3 34.3 26.1 88 1.6 N 6 6 3 3 1005.6 1005.0 0.0
01/06:30pm 28.8 34.1 25.8 84 2.1 N 9 11 5 6 1005.6 1005.0 0.0
01/06:00pm 30.3 34.7 24.4 70 4.1 W 9 11 5 6 1005.1 1004.5 0.0
01/05:30pm 30.6 33.6 24.0 68 4.6 W 15 20 8 11 1005.3 1004.7 0.0
01/05:00pm 31.0 34.4 24.1 66 4.8 W 13 17 7 9 1004.4 1003.8 0.0
01/04:30pm 30.5 33.7 24.4 70 4.3 WNW 15 20 8 11 1004.1 1003.5 0.0
01/04:00pm 31.1 34.3 25.0 70 4.3 WNW 17 22 9 12 1004.5 1003.9 0.0
01/03:30pm 32.3 35.9 25.6 67 4.8 W 17 30 9 16 1004.7 1004.1 0.0
01/03:00pm 31.8 32.9 24.4 65 5.2 W 26 39 14 21 1004.9 1004.3 0.0
01/02:30pm 31.6 33.8 24.2 65 5.2 WSW 20 43 11 23 1004.4 1003.8 0.0
01/02:29pm 31.7 33.9 24.0 63 5.4 SW 19 41 10 22 1004.4 1003.8 0.0
01/02:00pm 34.4 38.2 23.4 52 7.7 SSW 9 15 5 8 1004.3 1003.7 0.0
01/01:30pm 33.8 37.4 23.8 56 7.0 SSW 11 17 6 9 1004.8 1004.2 0.0
01/01:00pm 34.4 38.0 23.7 53 7.5 SSW 11 15 6 8 1005.4 1004.8 0.0
01/12:30pm 34.3 37.8 23.6 53 7.5 SSW 11 19 6 10 1006.0 1005.4 0.0
01/12:00pm 33.4 37.2 23.4 55 7.0 SSW 9 22 5 12 1006.5 1005.9 0.0
01/11:30am 33.8 37.2 24.1 57 6.8 S 13 20 7 11 1007.1 1006.5 0.0
01/11:00am 32.6 36.8 23.5 58 6.3 SSW 7 13 4 7 1007.6 1007.0 0.0
01/10:30am 32.3 36.5 24.1 62 5.7 S 9 17 5 9 1008.4 1007.8 0.0
01/10:00am 31.3 34.8 22.9 61 5.8 SSW 9 17 5 9 1008.4 1007.8 0.0
01/09:30am 31.2 34.1 23.8 64 5.1 S 15 19 8 10 1008.4 1007.8 0.0
01/09:00am 29.8 33.6 24.0 71 4.0 SSW 11 17 6 9 1008.8 1008.2 3.8
01/08:30am 28.5 31.9 24.7 80 2.7 S 15 20 8 11 1008.6 1008.0 3.8
01/08:00am 27.3 31.8 24.6 85 1.9 S 9 13 5 7 1009.1 1008.5 3.8
01/07:30am 27.1 31.6 24.6 86 1.7 SSW 9 11 5 6 1008.6 1008.0 3.8
01/07:00am 26.6 31.1 24.6 89 1.4 SW 9 11 5 6 1008.2 1007.6 3.8
01/06:30am 25.7 30.5 24.5 93 0.8 SW 7 11 4 6 1007.7 1007.1 3.8
01/06:00am 24.8 30.9 24.5 98 0.2 CALM 0 0 0 0 1007.4 1006.8 3.8
01/05:30am 24.7 29.7 23.8 95 0.6 WNW 4 7 2 4 1006.9 1006.3 3.8
01/05:00am 24.8 29.4 23.8 94 0.7 W 6 7 3 4 1006.5 1005.9 3.8
01/04:30am 25.0 29.7 24.0 94 0.7 SW 6 7 3 4 1006.2 1005.6 3.8
01/04:00am 24.8 29.5 23.9 95 0.6 WSW 6 7 3 4 1005.9 1005.3 3.8
01/03:30am 24.5 30.0 24.0 97 0.3 S 2 6 1 3 1005.9 1005.3 3.8
01/03:00am 24.6 28.6 23.7 95 0.6 S 9 11 5 6 1005.9 1005.3 3.8
01/02:30am 24.4 28.7 23.7 96 0.5 S 7 9 4 5 1006.0 1005.4 3.8
01/02:00am 24.4 29.3 23.7 96 0.5 S 4 7 2 4 1006.0 1005.4 3.8
01/01:30am 24.3 28.7 23.4 95 0.6 S 6 9 3 5 1006.1 1005.5 3.8
01/01:00am 24.3 28.5 23.4 95 0.6 SSE 7 9 4 5 1005.9 1005.3 3.8
01/12:30am 24.4 28.8 23.4 94 0.7 SSE 6 7 3 4 1006.1 1005.5 3.8
01/12:00am 24.5 28.3 23.5 94 0.7 SSW 9 11 5 6 1006.3 1005.7 3.8
 
Date/Time
WST
Temp
°C
App
Temp
°C
Dew
Point
Rel
Hum
%
Delta-T
°C
Wind Press
QNH
hPa
Press
MSL
hPa
Rain
since 9 am
mm
Dir
 
Spd
km/h
Gust
km/h
Spd
kts
Gust
kts
28/11:30pm 24.6 29.1 23.7 95 0.6 SSW 6 7 3 4 1006.5 1005.9 3.8
28/11:00pm 24.4 28.3 24.2 99 0.1 SW 11 13 6 7 1006.9 1006.3 3.8
28/10:30pm 24.7 28.4 24.5 99 0.1 SW 13 17 7 9 1007.2 1006.6 3.8
28/10:00pm 24.8 29.0 24.1 96 0.5 S 9 13 5 7 1006.9 1006.3 3.8
28/09:30pm 24.3 29.1 24.1 99 0.1 ENE 6 9 3 5 1006.6 1006.0 3.8
28/09:00pm 24.2 28.7 23.9 98 0.2 NE 7 9 4 5 1006.9 1006.3 3.8
28/08:30pm 24.2 29.6 23.3 95 0.6 CALM 0 0 0 0 1006.9 1006.3 3.8
28/08:00pm 24.1 29.3 22.9 93 0.8 CALM 0 0 0 0 1006.8 1006.2 3.8
28/07:30pm 24.6 28.1 22.8 90 1.2 SW 9 15 5 8 1006.6 1006.0 3.8
28/07:00pm 24.5 28.0 22.9 91 1.1 WNW 9 13 5 7 1006.3 1005.7 3.8
28/06:30pm 24.8 27.9 23.6 93 0.8 WNW 13 19 7 10 1006.2 1005.6 3.8
28/06:00pm 24.7 27.5 23.7 94 0.7 WNW 15 20 8 11 1006.0 1005.4 3.8
28/05:30pm 24.7 28.1 23.3 92 1.0 N 11 15 6 8 1005.9 1005.3 3.4
28/05:00pm 28.0 26.8 21.5 67 4.4 SE 30 48 16 26 1005.5 1004.9 0.0
28/04:57pm 28.7 27.6 21.0 63 5.1 SE 28 48 15 26 1005.6 1005.0 0.0
28/04:30pm 32.2 37.5 25.3 67 4.9 N 7 9 4 5 1004.8 1004.2 0.0
28/04:00pm 32.7 38.0 25.2 64 5.3 NNW 7 9 4 5 1004.2 1003.6 0.0
28/03:30pm 33.0 37.9 25.3 64 5.5 N 9 15 5 8 1004.4 1003.8 0.0
28/03:00pm 34.0 39.2 25.1 59 6.3 N 7 13 4 7 1003.9 1003.3 0.0
28/02:30pm 34.5 38.7 24.1 54 7.3 W 9 15 5 8 1003.7 1003.1 0.0
28/02:00pm 34.7 40.1 25.5 59 6.6 W 7 13 4 7 1004.2 1003.6 0.0
28/01:30pm 33.8 38.6 24.1 57 6.8 NW 6 9 3 5 1005.0 1004.4 0.0
28/01:00pm 34.1 38.6 24.6 57 6.7 NNW 9 17 5 9 1005.5 1004.9 0.0
28/12:30pm 34.1 39.0 24.6 57 6.7 S 7 9 4 5 1006.2 1005.6 0.0
28/12:00pm 33.3 38.4 25.0 61 5.9 NNW 7 11 4 6 1006.7 1006.1 0.0
28/11:30am 32.5 36.1 23.7 59 6.1 NNW 11 15 6 8 1007.0 1006.4 0.0
28/11:00am 32.1 37.2 24.9 65 5.1 SW 7 9 4 5 1007.6 1007.0 0.0
28/10:30am 32.5 37.3 25.1 65 5.2 WSW 9 13 5 7 1008.1 1007.5 0.0
28/10:00am 32.4 37.3 25.2 66 5.1 WNW 9 13 5 7 1008.5 1007.9 0.0
28/09:30am 31.6 37.0 25.2 69 4.5 W 6 13 3 7 1008.5 1007.9 0.0
28/09:00am 30.9 35.5 25.9 74 3.6 WSW 13 19 7 10 1008.8 1008.2 19.8
28/08:30am 30.0 35.3 26.4 81 2.6 WSW 11 19 6 10 1008.4 1007.8 19.8
28/08:28am 30.4 36.4 27.4 84 2.2 WSW 11 17 6 9 1008.3 1007.7 19.8
28/08:13am 29.6 35.0 26.6 84 2.2 W 11 15 6 8 1008.3 1007.7 19.8
28/08:00am 29.2 34.1 26.4 85 2.0 W 13 17 7 9 1008.1 1007.5 19.8
28/07:30am 28.1 33.7 26.3 90 1.3 WSW 9 13 5 7 1008.0 1007.4 19.8
28/07:00am 27.1 33.5 26.6 97 0.4 SW 6 7 3 4 1007.8 1007.2 19.8
28/06:30am 26.3 32.8 26.3 100 0.0 S 4 6 2 3 1007.4 1006.8 19.8
28/06:00am 25.4 30.8 25.4 100 0.0 S 7 9 4 5 1007.0 1006.4 19.8
28/05:30am 25.1 31.6 25.1 100 0.0 CALM 0 0 0 0 1006.5 1005.9 19.8
28/05:00am 25.2 30.6 25.2 100 0.0 WSW 6 7 3 4 1006.2 1005.6 19.8
28/04:30am 25.2 30.5 25.2 100 0.0 SW 7 9 4 5 1006.1 1005.5 19.8
28/04:00am 25.3 30.2 25.3 100 0.0 WSW 9 11 5 6 1006.1 1005.5 19.8
28/03:30am 25.5 30.9 25.5 100 0.0 WSW 7 9 4 5 1006.3 1005.7 19.8
28/03:00am 25.6 31.2 25.4 99 0.1 SW 6 7 3 4 1006.0 1005.4 19.8
28/02:30am 25.6 31.1 25.6 100 0.0 SSW 7 9 4 5 1005.8 1005.2 19.8
28/02:00am 25.6 31.1 25.6 100 0.0 W 7 11 4 6 1005.9 1005.3 19.8
28/01:30am 25.8 31.4 25.8 100 0.0 WSW 7 9 4 5 1006.2 1005.6 19.8
28/01:00am 25.8 31.4 25.8 100 0.0 WSW 7 7 4 4 1006.5 1005.9 19.8
28/12:30am 25.9 31.8 25.9 100 0.0 WSW 6 9 3 5 1007.0 1006.4 19.8
28/12:00am 25.9 31.6 25.9 100 0.0 WSW 7 9 4 5 1007.3 1006.7 19.8
 
Date/Time
WST
Temp
°C
App
Temp
°C
Dew
Point
Rel
Hum
%
Delta-T
°C
Wind Press
QNH
hPa
Press
MSL
hPa
Rain
since 9 am
mm
Dir
 
Spd
km/h
Gust
km/h
Spd
kts
Gust
kts
27/11:30pm 25.9 31.7 25.7 99 0.1 WNW 6 9 3 5 1007.6 1007.0 19.8
27/11:00pm 26.1 31.8 25.9 99 0.1 W 7 11 4 6 1007.6 1007.0 19.8
27/10:30pm 26.0 32.6 25.8 99 0.1 WNW 2 6 1 3 1007.5 1006.9 19.8
27/10:00pm 26.0 32.2 25.8 99 0.1 NW 4 6 2 3 1007.4 1006.8 19.8
27/09:30pm 26.1 31.8 25.9 99 0.1 WNW 7 9 4 5 1007.0 1006.4 19.8
27/09:00pm 26.1 31.9 25.8 98 0.2 WNW 6 7 3 4 1006.6 1006.0 19.8
27/08:30pm 26.1 31.8 25.6 97 0.4 NNW 6 9 3 5 1006.2 1005.6 19.8
27/08:00pm 26.3 31.9 25.4 95 0.6 NNW 6 7 3 4 1005.8 1005.2 19.8
27/07:30pm 26.5 32.6 25.6 95 0.6 NNW 4 7 2 4 1005.7 1005.1 19.8

Other Formats:

Comma delimited format used in spreadsheet applications
http://www.bom.gov.au/fwo/IDW60801/IDW60801.94204.axf

JavaScript Object Notation format (JSON) in row-major order
http://www.bom.gov.au/fwo/IDW60801/IDW60801.94204.json